Time;durP1;ratioP1;P1;durP2;ratioP2;P2;SDS_P1;SDS_P2;PMS_P1;PMS_P2;Temp;Humidity;BMP_temperature;BMP_pressure;BME280_temperature;BME280_humidity;BME280_pressure;Samples;Min_cycle;Max_cycle;Signal;HPM_P1;HPM_P2
2021/05/21 05:30:13;;;;;;;14.90;12.60;;;;;;;11.93;71.21;100092.62;1708543;78;27208;31
2021/05/21 05:32:40;;;;;;;15.50;11.50;;;;;;;12.06;70.62;100088.70;1641399;85;26649;-58
2021/05/21 05:35:08;;;;;;;18.25;12.53;;;;;;;12.17;70.73;100083.14;1640470;86;25895;-58
2021/05/21 05:37:34;;;;;;;16.93;11.75;;;;;;;12.31;70.44;100078.32;1650391;84;25719;-58
2021/05/21 05:40:00;;;;;;;16.25;12.15;;;;;;;12.43;69.76;100083.05;1646514;84;28112;-58
2021/05/21 05:42:27;;;;;;;17.52;11.78;;;;;;;12.52;69.38;100089.79;1641337;84;25961;-58
2021/05/21 05:44:53;;;;;;;14.33;11.57;;;;;;;12.59;69.07;100084.64;1640855;84;26368;-58
2021/05/21 05:47:20;;;;;;;16.20;10.32;;;;;;;12.70;68.43;100089.13;1652958;86;26606;-58
2021/05/21 05:49:47;;;;;;;17.95;11.38;;;;;;;12.73;68.17;100089.83;1640192;84;25873;-58
2021/05/21 05:52:15;;;;;;;12.43;9.90;;;;;;;12.81;67.98;100087.63;1632481;84;27420;-57
2021/05/21 05:54:43;;;;;;;12.43;10.38;;;;;;;12.87;67.70;100087.69;1642544;85;25670;-58
2021/05/21 05:57:10;;;;;;;15.03;10.13;;;;;;;13.01;67.53;100083.93;1630691;85;25791;-58
2021/05/21 05:59:38;;;;;;;14.65;9.85;;;;;;;13.22;67.49;100082.56;1640922;85;26445;-58
2021/05/21 06:02:05;;;;;;;13.53;9.03;;;;;;;13.50;67.30;100084.21;1644627;85;25801;-58
2021/05/21 06:04:31;;;;;;;19.25;8.55;;;;;;;13.76;66.87;100078.52;1635614;85;27430;-58
2021/05/21 06:06:58;;;;;;;13.55;9.63;;;;;;;14.02;66.63;100073.36;1638767;85;27178;-58
2021/05/21 06:09:26;;;;;;;15.85;10.58;;;;;;;14.31;66.12;100067.50;1633567;85;25760;-58
2021/05/21 06:11:52;;;;;;;15.98;9.28;;;;;;;14.59;66.39;100069.56;1633570;85;25664;-58
2021/05/21 06:14:18;;;;;;;12.30;9.25;;;;;;;14.90;65.90;100070.34;1639990;85;25865;-58
2021/05/21 06:16:45;;;;;;;12.13;8.33;;;;;;;15.10;63.89;100068.56;1646621;85;28348;-58
2021/05/21 06:19:11;;;;;;;10.88;7.65;;;;;;;15.28;63.97;100067.16;1626389;85;25780;-58
2021/05/21 06:21:37;;;;;;;13.30;7.87;;;;;;;15.48;63.48;100068.69;1643522;84;26183;-57
2021/05/21 06:24:06;;;;;;;11.08;8.43;;;;;;;15.64;62.44;100069.50;1644809;85;26080;-58
2021/05/21 06:26:36;;;;;;;12.25;8.15;;;;;;;15.74;60.88;100064.70;1647837;86;33536;-58
2021/05/21 06:29:02;;;;;;;14.40;8.73;;;;;;;15.85;60.65;100061.14;1645388;84;29471;-58
2021/05/21 06:31:29;;;;;;;9.90;7.08;;;;;;;16.02;60.40;100063.29;1637838;85;25885;-58
2021/05/21 06:33:56;;;;;;;13.75;7.15;;;;;;;16.24;59.96;100064.06;1637273;85;25976;-58
2021/05/21 06:36:22;;;;;;;10.53;6.78;;;;;;;16.47;58.20;100056.59;1616362;86;27856;-58
2021/05/21 06:38:48;;;;;;;10.88;7.25;;;;;;;16.71;59.67;100054.80;1627990;85;25961;-58
2021/05/21 06:41:15;;;;;;;13.38;7.72;;;;;;;17.02;58.53;100045.73;1633658;85;27373;-57
2021/05/21 06:43:42;;;;;;;11.75;7.17;;;;;;;17.27;57.39;100047.62;1635755;85;26001;-57
2021/05/21 06:46:09;;;;;;;12.73;7.12;;;;;;;17.36;56.87;100047.39;1605152;87;25653;-57
2021/05/21 06:48:38;;;;;;;10.00;6.75;;;;;;;17.32;56.37;100049.28;1649155;84;26691;-57
2021/05/21 06:51:07;;;;;;;14.13;6.45;;;;;;;17.24;56.30;100038.77;1644510;86;25741;-57
2021/05/21 06:53:35;;;;;;;13.28;6.03;;;;;;;17.34;56.20;100049.70;1604645;86;27283;-56
2021/05/21 06:56:02;;;;;;;6.85;5.75;;;;;;;17.49;55.73;100042.58;1638441;86;25823;-58
2021/05/21 06:58:28;;;;;;;10.80;6.95;;;;;;;17.58;55.39;100043.71;1638928;84;25678;-58
2021/05/21 07:00:58;;;;;;;7.70;5.90;;;;;;;17.72;54.39;100048.06;1632330;85;26952;-58
2021/05/21 07:03:31;;;;;;;12.00;5.28;;;;;;;17.80;54.78;100036.09;1635373;84;26593;-58
2021/05/21 07:05:55;;;;;;;7.90;5.25;;;;;;;18.17;55.37;100041.05;1639203;85;27372;-58
2021/05/21 07:08:22;;;;;;;9.40;5.40;;;;;;;18.46;54.08;100036.80;1624318;86;25859;-58
2021/05/21 07:10:49;;;;;;;11.63;5.35;;;;;;;18.66;51.47;100043.53;1637379;84;25903;-58
2021/05/21 07:13:18;;;;;;;9.10;5.83;;;;;;;18.45;50.22;100043.42;1646986;85;25721;-58
2021/05/21 07:15:46;;;;;;;12.53;5.35;;;;;;;18.32;50.48;100038.53;1646171;85;27251;-58
2021/05/21 07:18:13;;;;;;;10.45;4.83;;;;;;;18.32;50.60;100046.74;1641595;84;27336;-58
2021/05/21 07:20:45;;;;;;;9.38;4.78;;;;;;;18.22;50.34;100032.53;1637100;85;25918;-56
2021/05/21 07:23:11;;;;;;;8.68;3.90;;;;;;;18.25;50.25;100035.91;1649755;85;25761;-58
2021/05/21 07:25:37;;;;;;;4.78;3.58;;;;;;;18.29;50.12;100034.59;1608471;86;26250;-58
2021/05/21 07:28:04;;;;;;;4.97;3.65;;;;;;;18.27;48.94;100035.55;1643945;84;25909;-57
2021/05/21 07:30:31;;;;;;;5.28;3.70;;;;;;;18.18;48.42;100030.30;1641275;85;27278;-57
2021/05/21 07:32:57;;;;;;;8.25;3.35;;;;;;;18.22;48.85;100036.64;1634284;84;25754;-58
2021/05/21 07:35:24;;;;;;;8.05;2.95;;;;;;;18.45;49.15;100024.84;1619302;86;26993;-61
2021/05/21 07:37:52;;;;;;;4.92;2.92;;;;;;;18.73;48.07;100031.33;1636452;85;26611;-62
2021/05/21 07:40:20;;;;;;;4.60;2.98;;;;;;;18.92;47.27;100029.64;1616023;86;25875;-62
2021/05/21 07:42:47;;;;;;;4.35;2.83;;;;;;;19.10;46.58;100023.78;1648963;85;27913;-62
2021/05/21 07:45:14;;;;;;;3.60;2.55;;;;;;;19.37;45.98;100022.33;1640499;86;25826;-62
2021/05/21 07:47:41;;;;;;;6.50;1.98;;;;;;;19.75;47.06;100018.45;1641346;85;25934;-62
2021/05/21 07:50:10;;;;;;;3.85;1.92;;;;;;;20.26;45.78;100014.16;1635849;85;25697;-63
2021/05/21 07:52:36;;;;;;;4.15;1.92;;;;;;;20.60;44.20;100017.30;1642738;84;25879;-60
2021/05/21 07:55:06;;;;;;;6.03;3.08;;;;;;;20.85;42.72;100010.00;1640696;84;27719;-62
2021/05/21 07:57:35;;;;;;;3.75;2.02;;;;;;;20.95;40.50;100020.84;1598462;86;25758;-61
2021/05/21 08:00:01;;;;;;;8.65;2.50;;;;;;;21.07;42.03;100017.75;1613920;85;26366;-63
2021/05/21 08:02:28;;;;;;;3.70;2.40;;;;;;;21.37;38.91;100021.41;1623223;85;25844;-62
2021/05/21 08:04:54;;;;;;;4.50;2.30;;;;;;;21.75;40.52;99997.89;1644200;84;25646;-62
2021/05/21 08:07:20;;;;;;;3.47;2.27;;;;;;;21.74;40.03;99998.28;1637898;85;27470;-63
2021/05/21 08:09:50;;;;;;;4.22;2.05;;;;;;;21.89;37.30;99995.73;1610140;86;25899;-63
2021/05/21 08:12:17;;;;;;;4.07;1.80;;;;;;;22.13;38.55;99998.88;1637275;86;25723;-63
2021/05/21 08:14:45;;;;;;;4.97;1.80;;;;;;;22.47;39.31;99996.48;1634338;85;26297;-62
2021/05/21 08:17:11;;;;;;;2.25;1.60;;;;;;;22.94;38.89;99987.47;1655320;85;25892;-63
2021/05/21 08:19:38;;;;;;;2.55;1.50;;;;;;;23.12;35.64;100004.55;1628663;85;27590;-62
2021/05/21 08:22:05;;;;;;;4.45;1.82;;;;;;;22.49;33.84;100001.60;1642367;84;25768;-62
2021/05/21 08:24:32;;;;;;;3.40;1.80;;;;;;;21.95;35.11;99990.04;1621889;85;25948;-62
2021/05/21 08:26:58;;;;;;;2.47;1.75;;;;;;;21.50;35.19;99991.58;1636068;84;26672;-62
2021/05/21 08:29:25;;;;;;;4.97;1.72;;;;;;;21.19;35.62;99977.33;1647339;85;25877;-61
2021/05/21 08:31:52;;;;;;;2.22;1.37;;;;;;;21.13;36.78;99980.25;1648502;84;27416;-62
2021/05/21 08:34:18;;;;;;;4.30;1.55;;;;;;;21.47;37.26;99975.27;1641722;85;25913;-62
2021/05/21 08:36:44;;;;;;;3.05;1.60;;;;;;;21.95;36.18;99973.52;1641278;85;25824;-63
2021/05/21 08:39:13;;;;;;;2.87;1.62;;;;;;;22.52;37.06;99977.39;1652983;85;25734;-62
2021/05/21 08:41:44;;;;;;;3.08;1.45;;;;;;;23.18;36.18;99978.13;1649670;84;25791;-62
2021/05/21 08:44:11;;;;;;;5.40;1.30;;;;;;;23.27;34.88;99970.78;1636106;85;27293;-61
2021/05/21 08:46:38;;;;;;;6.67;1.42;;;;;;;23.39;31.52;99979.96;1632364;84;25643;-63
2021/05/21 08:49:05;;;;;;;1.72;0.98;;;;;;;23.09;29.44;99960.64;1633825;85;25848;-60
2021/05/21 08:51:31;;;;;;;1.32;1.22;;;;;;;23.37;32.29;99965.80;1640329;86;25778;-62
2021/05/21 08:53:58;;;;;;;2.17;0.98;;;;;;;23.42;32.37;99953.55;1628376;85;25870;-62
2021/05/21 08:56:25;;;;;;;3.80;1.20;;;;;;;23.24;30.58;99969.63;1637078;84;27315;-62
2021/05/21 08:58:52;;;;;;;1.15;0.90;;;;;;;23.09;31.40;99952.38;1641621;85;25827;-62
2021/05/21 09:01:20;;;;;;;4.15;1.37;;;;;;;22.96;31.29;99960.09;1633594;85;25712;-62
2021/05/21 09:03:50;;;;;;;1.30;1.20;;;;;;;22.52;31.48;99966.36;1643641;84;25737;-58
2021/05/21 09:06:23;;;;;;;2.60;1.20;;;;;;;22.01;31.30;99959.56;1615389;86;25557;-58
2021/05/21 09:08:57;;;;;;;2.45;1.20;;;;;;;21.62;31.73;99958.17;1641960;85;28121;-59
2021/05/21 09:11:28;;;;;;;2.12;0.88;;;;;;;21.86;32.73;99955.81;1636135;85;26336;-61
2021/05/21 09:14:07;;;;;;;1.47;1.02;;;;;;;22.37;32.67;99965.61;1642302;85;25718;-59
2021/05/21 09:16:38;;;;;;;2.85;1.30;;;;;;;22.13;30.07;99948.70;1640671;84;27793;-60
2021/05/21 09:19:16;;;;;;;2.90;1.27;;;;;;;21.81;32.18;99945.98;1646275;84;25893;-61
2021/05/21 09:22:09;;;;;;;1.20;0.90;;;;;;;21.86;32.63;99937.92;1639787;84;27358;-73
2021/05/21 09:24:48;;;;;;;2.58;1.10;;;;;;;21.72;32.62;99950.50;1644309;84;25693;-70
2021/05/21 09:27:19;;;;;;;1.30;1.20;;;;;;;21.14;32.53;99937.24;1648403;83;25715;-72
2021/05/21 09:29:55;;;;;;;2.95;1.00;;;;;;;20.62;32.68;99933.89;1639024;85;25883;-72
2021/05/21 09:32:34;;;;;;;1.65;0.98;;;;;;;20.11;32.40;99932.27;1637612;85;25709;-69
2021/05/21 09:35:21;;;;;;;2.08;0.98;;;;;;;19.59;33.89;99934.19;1615253;87;27406;-71
2021/05/21 09:37:52;;;;;;;3.02;1.00;;;;;;;19.32;34.25;99937.07;1642350;86;25889;-69
2021/05/21 09:40:26;;;;;;;1.10;1.00;;;;;;;19.20;34.89;99932.64;1622420;87;25753;-67
2021/05/21 09:43:02;;;;;;;1.40;1.00;;;;;;;18.89;35.38;99937.22;1644508;85;25893;-68
2021/05/21 09:45:36;;;;;;;1.90;1.20;;;;;;;18.52;35.62;99944.16;1617097;85;26059;-67
2021/05/21 09:48:10;;;;;;;4.37;1.20;;;;;;;18.21;35.98;99929.66;1600444;85;27497;-68
2021/05/21 09:50:43;;;;;;;2.70;1.00;;;;;;;18.09;35.55;99928.52;1630177;85;25795;-68
2021/05/21 09:53:17;;;;;;;1.30;1.05;;;;;;;17.96;36.76;99920.30;1642092;84;25830;-69
2021/05/21 09:55:52;;;;;;;2.75;0.95;;;;;;;18.13;38.31;99910.19;1638747;84;25810;-68
2021/05/21 09:58:33;;;;;;;2.90;1.55;;;;;;;19.01;38.32;99916.41;1649745;85;25921;-67
2021/05/21 10:01:17;;;;;;;2.72;1.00;;;;;;;19.77;36.77;99902.23;1635730;85;27342;-68
2021/05/21 10:03:57;;;;;;;6.47;1.55;;;;;;;20.57;36.35;99907.59;1618967;86;26029;-69
2021/05/21 10:06:27;;;;;;;1.60;1.25;;;;;;;20.64;34.23;99898.62;1628460;85;26040;-68
2021/05/21 10:09:01;;;;;;;1.82;1.40;;;;;;;20.78;34.84;99902.01;1620426;86;25927;-67
2021/05/21 10:11:27;;;;;;;3.37;1.25;;;;;;;21.21;33.67;99903.48;1638857;84;25845;-67
2021/05/21 10:13:54;;;;;;;1.75;1.00;;;;;;;21.15;33.30;99893.45;1628224;85;27310;-67
2021/05/21 10:16:22;;;;;;;3.27;1.17;;;;;;;20.97;31.57;99896.75;1645047;84;25840;-67
2021/05/21 10:18:52;;;;;;;4.78;1.10;;;;;;;21.17;33.30;99887.57;1636661;85;25882;-66
2021/05/21 10:21:21;;;;;;;1.30;1.10;;;;;;;21.49;32.35;99890.94;1638436;84;25847;-66
2021/05/21 10:24:03;;;;;;;3.08;1.10;;;;;;;21.53;32.85;99882.89;1640180;86;25749;-66
2021/05/21 10:26:34;;;;;;;1.70;1.50;;;;;;;21.98;33.19;99886.57;1646246;85;27333;-65
2021/05/21 10:29:06;;;;;;;1.47;1.00;;;;;;;22.35;32.83;99871.55;1644123;85;26707;-64
2021/05/21 10:31:32;;;;;;;1.20;1.10;;;;;;;22.60;30.41;99868.70;1626656;85;25822;-65
2021/05/21 10:34:21;;;;;;;4.90;2.02;;;;;;;22.78;31.59;99875.48;1646504;85;25746;-65
2021/05/21 10:36:49;;;;;;;4.33;1.35;;;;;;;22.87;31.62;99884.11;1637707;84;25971;-64
2021/05/21 10:39:21;;;;;;;2.67;1.00;;;;;;;22.53;30.45;99880.53;1634045;86;27358;-64
2021/05/21 10:41:58;;;;;;;2.45;1.20;;;;;;;22.17;31.41;99880.64;1627550;85;25751;-64
2021/05/21 10:44:29;;;;;;;2.05;1.30;;;;;;;21.92;30.59;99880.69;1643341;86;25924;-63
2021/05/21 10:47:21;;;;;;;1.40;1.30;;;;;;;21.90;31.59;99878.94;1641935;84;25826;-63
2021/05/21 10:50:05;;;;;;;1.70;1.57;;;;;;;22.22;32.03;99870.38;1642894;85;25728;-65
2021/05/21 10:52:59;;;;;;;1.47;1.17;;;;;;;22.41;31.99;99869.97;1621404;86;28113;-63
2021/05/21 10:55:54;;;;;;;2.58;1.30;;;;;;;22.88;31.69;99860.88;1616509;87;25702;-63
2021/05/21 10:58:31;;;;;;;1.70;1.60;;;;;;;22.97;30.66;99859.05;1624266;86;25858;-62
2021/05/21 11:01:27;;;;;;;3.98;1.57;;;;;;;22.44;29.91;99859.53;1612653;87;25769;-62
2021/05/21 11:04:07;;;;;;;1.60;1.40;;;;;;;21.84;30.94;99846.09;1619384;86;25943;-63
2021/05/21 11:06:51;;;;;;;2.33;1.30;;;;;;;21.88;31.64;99845.52;1620868;85;27345;-63
2021/05/21 11:09:22;;;;;;;2.70;1.30;;;;;;;21.87;32.00;99835.67;1621006;87;25756;-62
2021/05/21 11:12:03;;;;;;;3.47;1.82;;;;;;;21.77;32.14;99837.86;1610701;86;25960;-62
2021/05/21 11:14:40;;;;;;;1.35;1.25;;;;;;;21.91;31.91;99824.65;1613229;87;26660;-62
2021/05/21 11:17:27;;;;;;;3.35;1.42;;;;;;;22.21;31.98;99817.28;1622394;86;25841;-62
2021/05/21 11:20:00;;;;;;;4.58;1.50;;;;;;;22.46;30.84;99822.71;1617413;86;29515;-62
2021/05/21 11:22:36;;;;;;;2.45;1.25;;;;;;;22.07;30.23;99800.22;1624247;86;26527;-62
2021/05/21 11:25:08;;;;;;;2.45;1.37;;;;;;;21.51;30.26;99805.47;1619046;87;25946;-62
2021/05/21 11:27:37;;;;;;;4.53;2.67;;;;;;;21.41;31.91;99796.61;1618239;87;25978;-62
2021/05/21 11:30:11;;;;;;;4.75;1.22;;;;;;;21.86;30.86;99807.94;1631932;86;26440;-61
2021/05/21 11:32:40;;;;;;;2.92;1.75;;;;;;;22.08;29.93;99799.02;1637852;85;27495;-61
2021/05/21 11:35:09;;;;;;;3.12;1.57;;;;;;;21.59;29.19;99796.03;1641807;85;25965;-62
2021/05/21 11:37:36;;;;;;;1.72;1.50;;;;;;;21.32;30.74;99797.02;1637528;84;25681;-62
2021/05/21 11:40:07;;;;;;;2.37;1.35;;;;;;;21.52;31.47;99785.04;1630433;86;25796;-62
2021/05/21 11:42:36;;;;;;;1.47;1.30;;;;;;;21.47;29.73;99788.77;1638900;84;25926;-60
2021/05/21 11:45:06;;;;;;;2.97;1.70;;;;;;;21.18;30.17;99796.44;1656169;85;27375;-61
2021/05/21 11:47:40;;;;;;;1.40;1.30;;;;;;;20.82;30.19;99790.92;1639688;86;25740;-61
2021/05/21 11:50:09;;;;;;;2.40;1.37;;;;;;;20.47;30.86;99794.34;1639095;85;25762;-62
2021/05/21 11:52:36;;;;;;;2.65;1.47;;;;;;;20.24;31.76;99770.71;1622253;86;25759;-61
2021/05/21 11:55:05;;;;;;;2.12;1.80;;;;;;;20.33;32.97;99778.02;1636340;85;25899;-61
2021/05/21 11:57:31;;;;;;;1.90;1.60;;;;;;;20.86;32.03;99774.43;1603044;87;27572;-60
2021/05/21 11:59:57;;;;;;;3.42;1.67;;;;;;;21.34;31.51;99789.75;1644977;85;25851;-60
2021/05/21 12:02:25;;;;;;;2.42;1.70;;;;;;;21.58;31.14;99771.66;1645860;85;25948;-59
2021/05/21 12:04:52;;;;;;;4.62;1.80;;;;;;;21.47;30.40;99773.06;1642137;85;25837;-61
2021/05/21 12:07:23;;;;;;;1.67;1.40;;;;;;;21.54;30.85;99766.16;1646670;85;25851;-60
2021/05/21 12:10:04;;;;;;;3.27;1.40;;;;;;;21.72;30.40;99761.20;1637353;86;27367;-60
2021/05/21 12:12:36;;;;;;;3.85;1.80;;;;;;;22.04;31.24;99764.44;1638458;84;25738;-60
2021/05/21 12:15:20;;;;;;;4.70;1.65;;;;;;;22.44;29.95;99763.09;1611706;85;25809;-61
2021/05/21 12:17:50;;;;;;;2.75;1.50;;;;;;;22.45;30.43;99748.71;1624959;85;26499;-59
2021/05/21 12:20:20;;;;;;;2.37;1.60;;;;;;;22.50;29.31;99752.42;1639306;86;25695;-61
2021/05/21 12:23:06;;;;;;;2.02;1.35;;;;;;;22.58;28.74;99736.03;1619097;86;28248;-60
2021/05/21 12:25:41;;;;;;;2.52;1.37;;;;;;;22.81;27.88;99736.06;1628052;86;25820;-61
2021/05/21 12:28:07;;;;;;;4.65;1.20;;;;;;;22.93;29.30;99725.91;1636835;84;25703;-59
2021/05/21 12:30:36;;;;;;;2.17;1.37;;;;;;;23.00;28.80;99727.83;1643261;86;25881;-60
2021/05/21 12:33:04;;;;;;;2.05;1.42;;;;;;;22.63;28.38;99731.47;1646830;84;25834;-61
2021/05/21 12:35:41;;;;;;;1.98;1.25;;;;;;;22.28;28.96;99720.09;1649387;85;27264;-62
2021/05/21 12:38:12;;;;;;;2.75;1.27;;;;;;;22.42;29.67;99710.34;1650698;84;25904;-61
2021/05/21 12:40:54;;;;;;;2.65;1.00;;;;;;;23.05;30.29;99707.48;1645303;85;25875;-61
2021/05/21 12:43:21;;;;;;;1.30;1.10;;;;;;;23.36;29.56;99702.68;1651254;85;25850;-61
2021/05/21 12:46:04;;;;;;;1.05;0.90;;;;;;;23.51;27.42;99708.23;1623934;86;25955;-61
2021/05/21 12:48:37;;;;;;;2.30;1.17;;;;;;;23.53;28.38;99715.52;1641143;85;27390;-61
2021/05/21 12:51:15;;;;;;;1.47;1.30;;;;;;;23.29;27.59;99696.64;1649529;85;26602;-62
2021/05/21 12:53:44;;;;;;;4.78;1.37;;;;;;;23.02;28.38;99699.23;1648934;85;25947;-62
2021/05/21 12:56:12;;;;;;;2.33;1.17;;;;;;;23.03;27.78;99706.33;1646764;83;26109;-62
2021/05/21 12:58:44;;;;;;;2.77;1.32;;;;;;;22.92;27.93;99696.78;1630977;84;26055;-61
2021/05/21 13:01:12;;;;;;;2.25;1.20;;;;;;;22.96;28.30;99688.48;1629117;85;27407;-62
2021/05/21 13:03:50;;;;;;;1.22;1.12;;;;;;;22.86;28.26;99692.28;1621009;85;25821;-62
2021/05/21 13:06:28;;;;;;;1.98;1.25;;;;;;;22.63;28.22;99691.51;1641352;85;26112;-61
2021/05/21 13:08:56;;;;;;;2.65;1.37;;;;;;;22.47;28.60;99691.23;1646106;85;25786;-61
2021/05/21 13:11:23;;;;;;;4.42;1.00;;;;;;;22.39;27.83;99683.62;1647806;85;25844;-62
2021/05/21 13:13:49;;;;;;;1.22;1.10;;;;;;;22.07;28.49;99675.53;1639363;84;27303;-63
2021/05/21 13:16:16;;;;;;;1.37;1.27;;;;;;;21.85;28.75;99684.48;1650479;84;25823;-62
2021/05/21 13:18:42;;;;;;;1.98;1.50;;;;;;;21.61;28.82;99698.73;1633962;86;26006;-63
2021/05/21 13:21:10;;;;;;;1.40;1.30;;;;;;;21.42;29.09;99688.94;1646276;86;25738;-64
2021/05/21 13:23:37;;;;;;;2.60;1.35;;;;;;;21.18;29.37;99694.69;1630170;85;25777;-61
2021/05/21 13:26:06;;;;;;;1.57;1.25;;;;;;;21.17;29.91;99685.45;1656488;84;27375;-62
2021/05/21 13:28:41;;;;;;;2.75;1.50;;;;;;;21.13;29.77;99692.34;1639791;85;25864;-62
2021/05/21 13:31:08;;;;;;;2.12;1.22;;;;;;;20.97;30.19;99688.61;1636500;85;26129;-62
2021/05/21 13:33:34;;;;;;;2.25;1.60;;;;;;;20.89;30.39;99681.55;1648444;84;25944;-63
2021/05/21 13:36:01;;;;;;;1.80;1.70;;;;;;;21.05;31.31;99681.16;1649051;85;25700;-63
2021/05/21 13:38:29;;;;;;;1.35;1.20;;;;;;;21.29;30.33;99668.53;1646013;84;27388;-62
2021/05/21 13:40:55;;;;;;;1.25;1.00;;;;;;;21.21;30.49;99673.25;1649514;84;26496;-62
2021/05/21 13:43:22;;;;;;;1.55;1.10;;;;;;;21.11;30.39;99668.56;1632290;85;25772;-62
2021/05/21 13:45:49;;;;;;;3.12;1.37;;;;;;;20.90;30.17;99659.77;1635447;85;27784;-62
2021/05/21 13:48:15;;;;;;;1.77;1.37;;;;;;;20.80;30.43;99659.96;1613573;86;25868;-62
2021/05/21 13:50:45;;;;;;;5.33;1.30;;;;;;;20.78;30.71;99656.83;1625473;85;27823;-62
2021/05/21 13:53:12;;;;;;;5.30;1.60;;;;;;;20.76;29.82;99655.66;1644143;85;25684;-62
2021/05/21 13:55:40;;;;;;;1.55;1.40;;;;;;;20.51;30.03;99672.29;1646457;85;25799;-61
2021/05/21 13:58:07;;;;;;;2.15;1.60;;;;;;;20.57;30.85;99655.42;1650922;85;25795;-62
2021/05/21 14:00:33;;;;;;;2.30;1.32;;;;;;;20.66;31.48;99652.52;1647767;85;25799;-62
2021/05/21 14:02:59;;;;;;;3.27;1.67;;;;;;;20.64;30.77;99662.34;1624362;85;27406;-62
2021/05/21 14:05:26;;;;;;;3.42;1.30;;;;;;;20.68;31.08;99646.03;1643888;84;25727;-62
2021/05/21 14:07:53;;;;;;;2.52;1.60;;;;;;;20.97;31.03;99655.63;1642245;85;25749;-62
2021/05/21 14:10:23;;;;;;;3.45;1.32;;;;;;;21.17;30.72;99653.23;1638699;85;25894;-62
2021/05/21 14:12:49;;;;;;;2.83;1.45;;;;;;;21.39;30.95;99636.69;1633834;86;25751;-63
2021/05/21 14:15:17;;;;;;;4.15;1.47;;;;;;;21.36;30.62;99648.48;1643245;85;27266;-62
2021/05/21 14:17:43;;;;;;;2.20;1.57;;;;;;;21.41;30.74;99610.33;1647853;85;25683;-62
2021/05/21 14:20:12;;;;;;;1.12;1.10;;;;;;;21.48;30.71;99606.80;1643591;84;25912;-61
2021/05/21 14:22:40;;;;;;;2.42;1.50;;;;;;;21.50;29.72;99612.67;1653523;85;25844;-61
2021/05/21 14:25:09;;;;;;;9.90;1.50;;;;;;;21.33;29.78;99601.91;1645141;84;25779;-62
2021/05/21 14:27:37;;;;;;;;;;;;;;;21.16;30.18;99593.14;1647388;85;27340;-62
2021/05/21 14:30:06;;;;;;;2.42;1.30;;;;;;;21.04;30.61;99586.91;1645783;85;25844;-61
2021/05/21 14:32:33;;;;;;;2.75;1.45;;;;;;;21.05;30.85;99579.44;1638677;85;25818;-63
2021/05/21 14:34:59;;;;;;;4.17;1.60;;;;;;;21.10;30.94;99572.75;1643333;85;26188;-63
2021/05/21 14:37:26;;;;;;;2.83;1.22;;;;;;;21.19;31.23;99574.47;1644112;85;25897;-63
2021/05/21 14:39:53;;;;;;;2.72;1.50;;;;;;;21.21;29.78;99566.60;1638071;85;28340;-62
2021/05/21 14:42:20;;;;;;;5.53;1.70;;;;;;;21.23;30.83;99572.48;1641892;84;25763;-62
2021/05/21 14:44:46;;;;;;;3.17;1.40;;;;;;;21.13;30.55;99572.73;1637146;85;25874;-61
2021/05/21 14:47:14;;;;;;;2.65;1.50;;;;;;;20.94;30.36;99581.42;1605947;86;25915;-62
2021/05/21 14:49:41;;;;;;;2.20;1.80;;;;;;;20.74;30.72;99565.95;1644411;84;25740;-63
2021/05/21 14:52:08;;;;;;;1.62;1.52;;;;;;;20.67;31.19;99570.86;1644538;85;27528;-62
2021/05/21 14:54:34;;;;;;;5.22;1.40;;;;;;;20.67;30.88;99577.73;1641360;85;25900;-62
2021/05/21 14:57:01;;;;;;;2.10;1.80;;;;;;;20.73;31.47;99569.30;1648102;85;25708;-62
2021/05/21 14:59:28;;;;;;;2.12;1.55;;;;;;;20.81;30.63;99591.46;1651684;86;26700;-63
2021/05/21 15:01:54;;;;;;;3.75;1.57;;;;;;;20.77;30.62;99553.59;1616658;86;25717;-62
2021/05/21 15:04:23;;;;;;;2.90;1.92;;;;;;;20.78;30.91;99563.98;1655361;84;27341;-62
2021/05/21 15:06:49;;;;;;;3.27;1.57;;;;;;;20.80;31.20;99563.78;1646174;86;25790;-62
2021/05/21 15:09:16;;;;;;;1.70;1.45;;;;;;;20.84;30.92;99547.27;1646619;84;25884;-63
2021/05/21 15:11:52;;;;;;;2.70;1.72;;;;;;;20.83;31.05;99548.47;1645713;86;25717;-63
2021/05/21 15:14:19;;;;;;;2.70;1.70;;;;;;;20.76;30.92;99578.72;1639247;85;26084;-62
2021/05/21 15:16:57;;;;;;;1.80;1.70;;;;;;;20.57;30.95;99553.77;1652677;85;27361;-63
2021/05/21 15:24:43;;;;;;;4.90;1.40;;;;;;;20.18;31.09;99555.98;1653555;85;26378;-63
2021/05/21 15:27:10;;;;;;;1.25;1.15;;;;;;;20.11;30.95;99549.90;1639132;85;25744;-62
2021/05/21 15:29:37;;;;;;;5.53;1.50;;;;;;;20.05;30.58;99543.99;1629257;85;27312;-63
2021/05/21 15:32:06;;;;;;;5.58;1.65;;;;;;;19.99;30.93;99540.66;1651890;86;25663;-62
2021/05/21 15:34:37;;;;;;;3.70;1.60;;;;;;;19.94;31.19;99527.53;1639133;85;25812;-62
2021/05/21 15:37:03;;;;;;;1.50;1.40;;;;;;;19.88;31.62;99531.05;1644014;85;25778;-63
2021/05/21 15:39:31;;;;;;;3.75;1.90;;;;;;;19.82;31.69;99525.17;1644699;84;26172;-62
2021/05/21 15:47:31;;;;;;;2.22;1.87;;;;;;;19.75;32.54;99512.23;1650516;85;26221;-61
2021/05/21 15:50:07;;;;;;;4.03;1.60;;;;;;;19.83;32.40;99513.00;1646962;85;27854;-65
2021/05/21 15:57:51;;;;;;;2.55;1.42;;;;;;;19.98;32.58;99515.18;1623138;86;26077;-61
2021/05/21 16:00:15;;;;;;;4.35;1.50;;;;;;;19.95;32.58;99508.53;1623958;85;25763;-62
2021/05/21 16:02:42;;;;;;;9.50;1.40;;;;;;;19.93;32.54;99508.70;1625515;85;25861;-62
2021/05/21 16:05:11;;;;;;;2.42;1.20;;;;;;;19.87;32.73;99511.63;1646612;86;26047;-63
2021/05/21 16:07:38;;;;;;;4.10;1.40;;;;;;;19.83;32.74;99520.46;1619978;86;27339;-62
2021/05/21 16:10:11;;;;;;;3.80;1.50;;;;;;;19.80;33.20;99517.89;1652015;85;26031;-62
2021/05/21 16:12:37;;;;;;;1.67;1.37;;;;;;;19.82;32.88;99512.02;1627985;86;25837;-62
2021/05/21 16:15:06;;;;;;;2.12;1.10;;;;;;;19.82;33.49;99513.39;1650739;86;26615;-62
2021/05/21 16:17:33;;;;;;;3.08;1.37;;;;;;;19.83;33.26;99528.09;1644331;86;25814;-62
2021/05/21 16:20:02;;;;;;;1.40;1.10;;;;;;;19.80;33.10;99506.92;1638055;84;27328;-64
2021/05/21 16:22:35;;;;;;;1.40;1.10;;;;;;;19.78;33.18;99492.81;1650984;85;25707;-63
2021/05/21 16:24:57;;;;;;;3.98;1.55;;;;;;;19.75;33.46;99499.88;1652208;85;27214;-63
2021/05/21 16:27:23;;;;;;;4.87;1.22;;;;;;;19.72;33.68;99499.25;1645600;86;25845;-62
2021/05/21 16:29:50;;;;;;;2.00;1.30;;;;;;;19.69;33.59;99502.00;1647592;86;25701;-63
2021/05/21 16:32:18;;;;;;;3.70;1.40;;;;;;;19.60;33.54;99496.30;1652273;84;28016;-62
2021/05/21 16:34:44;;;;;;;1.80;1.25;;;;;;;19.52;33.71;99499.42;1652920;85;25912;-62
2021/05/21 16:37:11;;;;;;;4.97;1.20;;;;;;;19.46;33.79;99496.84;1657976;85;25853;-62
2021/05/21 16:39:37;;;;;;;5.37;1.20;;;;;;;19.39;33.74;99492.13;1641576;86;27838;-62
2021/05/21 16:42:05;;;;;;;1.60;1.05;;;;;;;19.32;33.75;99492.89;1635651;86;25969;-62
2021/05/21 16:44:31;;;;;;;3.40;1.30;;;;;;;19.25;33.90;99498.36;1649551;85;27340;-62
2021/05/21 16:46:58;;;;;;;4.75;1.67;;;;;;;19.23;34.03;99494.64;1639924;85;25862;-62
2021/05/21 16:49:32;;;;;;;1.17;1.12;;;;;;;19.21;34.30;99486.02;1652626;86;25764;-63
2021/05/21 16:51:52;;;;;;;2.17;1.20;;;;;;;19.17;34.34;99488.54;1652256;84;25833;-62
2021/05/21 16:54:19;;;;;;;5.40;1.67;;;;;;;19.14;34.25;99483.86;1650046;85;25864;-62
2021/05/21 16:56:45;;;;;;;3.08;1.05;;;;;;;19.10;34.48;99478.93;1647502;84;27352;-62
2021/05/21 16:59:12;;;;;;;2.40;1.35;;;;;;;19.09;34.67;99478.75;1640586;85;26295;-62
2021/05/21 17:01:38;;;;;;;4.25;1.22;;;;;;;19.04;34.81;99473.83;1640742;85;25874;-63
2021/05/21 17:04:06;;;;;;;3.87;1.30;;;;;;;19.03;34.88;99477.75;1638608;85;26284;-61
2021/05/21 17:06:32;;;;;;;4.72;1.85;;;;;;;19.00;34.99;99476.34;1625142;86;25702;-62
2021/05/21 17:08:59;;;;;;;2.70;2.05;;;;;;;18.95;35.23;99471.23;1649369;84;27343;-62
2021/05/21 17:11:26;;;;;;;4.40;2.15;;;;;;;18.87;35.11;99460.84;1647259;85;25877;-62
2021/05/21 17:13:57;;;;;;;8.75;2.30;;;;;;;18.84;35.49;99463.76;1650500;86;25847;-62
2021/05/21 17:17:30;;;;;;;2.65;1.80;;;;;;;18.79;35.61;99459.98;1636885;85;25724;-63
2021/05/21 17:19:12;;;;;;;4.67;1.90;;;;;;;18.75;35.73;99452.35;1613798;87;25786;-62
2021/05/21 17:38:42;;;;;;;4.08;2.60;;;;;;;18.36;36.79;99424.78;1646305;84;25793;-63
2021/05/21 17:43:44;;;;;;;4.65;1.80;;;;;;;18.22;37.25;99430.36;1637434;85;25812;-61
2021/05/21 18:02:14;;;;;;;3.35;2.10;;;;;;;17.83;38.48;99406.22;1565634;88;27539;-62